San Diego, California
Traffic Map
Current Weather Conditions
San Diego, California
Overcast
Overcast
65°
Feels Like: 65°
Wind Chill: 65° Ceiling: 1600
Heat Index: 65° Visibility: 10mi
Dew Point: 56° Wind: 5mph
Humidity: 73% Direction: 240° (WSW)
Pressure: 29.92in Gusts: 0mph
Raw Report DataKSAN 311751Z 24004KT 10SM SCT014 OVC016 18/13 A2992 RMK AO2 SLP130 T01830133 10183 20172 51001 $
Traffic Incident Summary
Active as of:
Severity:
Category:
InformationThere was an issue retrieving the traffic information for this location. Please try a different location or try again shortly.
Advertisements
Track Severe Weather on mobile